createdAt,value
2022-08-28T00:01:20.619Z,19.90
2022-08-28T00:03:50.199Z,19.90
2022-08-28T00:06:20.131Z,19.90
2022-08-28T00:08:49.589Z,19.90
2022-08-28T00:11:19.063Z,19.90
2022-08-28T00:13:48.889Z,19.90
2022-08-28T00:16:20.024Z,19.90
2022-08-28T00:18:49.578Z,19.90
2022-08-28T00:21:19.066Z,19.80
2022-08-28T00:23:49.505Z,19.90
2022-08-28T00:26:43.511Z,19.90
2022-08-28T00:29:37.277Z,19.80
2022-08-28T00:32:07.838Z,19.80
2022-08-28T00:34:41.089Z,19.80
2022-08-28T00:37:24.658Z,19.80
2022-08-28T00:40:04.735Z,19.80
2022-08-28T00:42:36.844Z,19.80
2022-08-28T00:45:12.919Z,19.90
2022-08-28T00:47:43.310Z,19.90
2022-08-28T00:50:14.346Z,19.90
2022-08-28T00:52:50.787Z,19.90
2022-08-28T00:55:23.706Z,19.90
2022-08-28T00:57:55.149Z,19.90
2022-08-28T01:00:34.355Z,19.80
2022-08-28T01:03:07.446Z,19.90
2022-08-28T01:05:38.885Z,19.90
2022-08-28T01:08:09.475Z,19.90
2022-08-28T01:10:43.058Z,19.90
2022-08-28T01:13:13.586Z,19.90
2022-08-28T01:15:44.206Z,19.90
2022-08-28T01:18:16.479Z,19.90
2022-08-28T01:20:55.082Z,19.90
2022-08-28T01:23:43.825Z,19.90
2022-08-28T01:26:14.023Z,19.90
2022-08-28T01:28:50.632Z,19.90
2022-08-28T01:31:23.559Z,19.90
2022-08-28T01:33:54.067Z,19.90
2022-08-28T01:36:24.275Z,20.00
2022-08-28T01:39:02.249Z,20.00
2022-08-28T01:41:32.578Z,20.00
2022-08-28T01:44:02.034Z,20.00
2022-08-28T01:46:39.018Z,20.00
2022-08-28T01:49:13.211Z,20.00
2022-08-28T01:51:43.502Z,20.00
2022-08-28T01:54:13.457Z,20.00
2022-08-28T01:56:43.177Z,20.00
2022-08-28T01:59:12.800Z,20.00
2022-08-28T02:01:43.792Z,20.00
2022-08-28T02:04:13.849Z,20.00
2022-08-28T02:06:43.335Z,20.00
2022-08-28T02:09:14.786Z,20.00
2022-08-28T02:11:46.554Z,20.00
2022-08-28T02:14:17.190Z,20.00
2022-08-28T02:16:46.724Z,20.00
2022-08-28T02:19:16.174Z,20.00
2022-08-28T02:21:45.946Z,20.00
2022-08-28T02:24:15.539Z,20.00
2022-08-28T02:26:46.105Z,20.10
2022-08-28T02:29:15.737Z,20.10
2022-08-28T02:31:45.270Z,20.10
2022-08-28T02:34:14.756Z,20.10
2022-08-28T02:36:44.335Z,20.10
2022-08-28T02:39:13.888Z,20.20
2022-08-28T02:41:43.490Z,20.20
2022-08-28T02:44:12.995Z,20.20
2022-08-28T02:46:42.444Z,20.20
2022-08-28T02:49:11.890Z,20.30
2022-08-28T02:51:41.325Z,20.30
2022-08-28T02:54:10.804Z,20.30
2022-08-28T02:56:40.798Z,20.30
2022-08-28T02:59:10.309Z,20.40
2022-08-28T03:01:39.815Z,20.40
2022-08-28T03:04:09.295Z,20.40
2022-08-28T03:06:39.260Z,20.40
2022-08-28T03:09:08.724Z,20.40
2022-08-28T03:11:38.360Z,20.40
2022-08-28T03:14:07.830Z,20.50
2022-08-28T03:16:37.344Z,20.50
2022-08-28T03:19:07.145Z,20.50
2022-08-28T03:21:36.602Z,20.50
2022-08-28T03:24:06.135Z,20.50
2022-08-28T03:26:35.711Z,20.60
2022-08-28T03:29:05.327Z,20.60
2022-08-28T03:31:37.058Z,20.60
2022-08-28T03:34:07.213Z,20.60
2022-08-28T03:36:36.748Z,20.60
2022-08-28T03:39:06.608Z,20.60
2022-08-28T03:41:36.092Z,20.70
2022-08-28T03:44:06.193Z,20.60
2022-08-28T03:46:35.661Z,20.70
2022-08-28T03:49:06.132Z,20.70
2022-08-28T03:51:35.966Z,20.70
2022-08-28T03:54:05.642Z,20.70
2022-08-28T03:56:35.206Z,20.80
2022-08-28T03:59:06.347Z,20.80
2022-08-28T04:01:39.033Z,20.80
2022-08-28T04:04:10.162Z,20.80
2022-08-28T04:06:39.759Z,20.80
2022-08-28T04:09:09.271Z,20.80
2022-08-28T04:11:45.211Z,20.80
2022-08-28T04:14:14.808Z,20.80
2022-08-28T04:16:44.453Z,20.80
2022-08-28T04:19:14.072Z,20.80
2022-08-28T04:21:43.536Z,20.90
2022-08-28T04:24:14.341Z,20.90
2022-08-28T04:26:45.385Z,21.00
2022-08-28T04:29:14.790Z,21.10
2022-08-28T04:31:44.398Z,21.10
2022-08-28T04:34:14.575Z,21.20
2022-08-28T04:36:44.325Z,21.30
2022-08-28T04:39:15.250Z,21.30
2022-08-28T04:41:45.954Z,21.30
2022-08-28T04:44:15.407Z,21.30
2022-08-28T04:46:44.868Z,21.30
2022-08-28T04:49:18.076Z,21.20
2022-08-28T04:51:47.574Z,21.20
2022-08-28T04:54:17.019Z,21.20
2022-08-28T04:56:47.466Z,21.10
2022-08-28T04:59:17.588Z,21.10
2022-08-28T05:01:47.109Z,21.10
2022-08-28T05:04:16.719Z,21.10
2022-08-28T05:06:47.417Z,21.10
2022-08-28T05:09:17.977Z,21.00
2022-08-28T05:11:47.914Z,21.00
2022-08-28T05:14:17.553Z,21.00
2022-08-28T05:16:47.865Z,21.00
2022-08-28T05:19:17.749Z,21.00
2022-08-28T05:21:47.284Z,21.00
2022-08-28T05:24:16.843Z,21.00
2022-08-28T05:26:48.302Z,21.00
2022-08-28T05:29:18.362Z,21.10
2022-08-28T05:31:48.782Z,21.10
2022-08-28T05:34:18.354Z,21.10
2022-08-28T05:36:47.805Z,21.20
2022-08-28T05:39:17.263Z,21.20
2022-08-28T05:41:46.824Z,21.30
2022-08-28T05:44:17.340Z,21.40
2022-08-28T05:46:48.878Z,21.50
2022-08-28T05:49:19.550Z,21.60
2022-08-28T05:51:49.223Z,21.80
2022-08-28T05:54:18.838Z,21.90
2022-08-28T05:56:49.531Z,22.00
2022-08-28T05:59:19.121Z,22.00
2022-08-28T06:01:49.558Z,22.00
2022-08-28T06:04:26.531Z,21.90
2022-08-28T06:06:56.137Z,21.80
2022-08-28T06:09:29.375Z,21.80
2022-08-28T06:12:02.163Z,21.70
2022-08-28T06:14:31.765Z,21.70
2022-08-28T06:17:02.187Z,21.60
2022-08-28T06:19:32.378Z,21.60
2022-08-28T06:22:07.145Z,21.50
2022-08-28T06:24:37.221Z,21.60
2022-08-28T06:27:06.870Z,21.60
2022-08-28T06:29:36.315Z,21.80
2022-08-28T06:32:06.237Z,22.10
2022-08-28T06:34:35.811Z,22.30
2022-08-28T06:37:05.322Z,22.20
2022-08-28T06:39:34.798Z,22.10
2022-08-28T06:42:04.355Z,21.90
2022-08-28T06:44:34.100Z,21.80
2022-08-28T06:47:04.383Z,21.80
2022-08-28T06:49:34.541Z,21.70
2022-08-28T06:52:04.709Z,21.70
2022-08-28T06:54:35.374Z,21.70
2022-08-28T06:57:06.304Z,21.60
2022-08-28T06:59:36.091Z,21.60
2022-08-28T07:02:07.192Z,21.60
2022-08-28T07:04:37.479Z,21.70
2022-08-28T07:07:07.468Z,21.80
2022-08-28T07:09:37.687Z,21.90
2022-08-28T07:12:08.448Z,21.80
2022-08-28T07:14:43.507Z,21.80
2022-08-28T07:17:19.539Z,21.80
2022-08-28T07:19:49.901Z,21.80
2022-08-28T07:22:19.899Z,21.80
2022-08-28T07:24:52.519Z,22.80
2022-08-28T07:27:27.111Z,23.90
2022-08-28T07:29:57.752Z,24.10
2022-08-28T07:32:28.722Z,23.70
2022-08-28T07:34:59.093Z,23.20
2022-08-28T07:37:29.322Z,23.00
2022-08-28T07:39:59.599Z,22.80
2022-08-28T07:42:48.257Z,22.60
2022-08-28T07:45:18.568Z,22.50
2022-08-28T07:47:49.799Z,22.40
2022-08-28T07:50:20.343Z,22.30
2022-08-28T07:52:51.633Z,22.30
2022-08-28T07:55:22.089Z,22.20
2022-08-28T07:57:51.808Z,22.10
2022-08-28T08:00:24.331Z,22.20
2022-08-28T08:02:55.117Z,22.10
2022-08-28T08:05:25.835Z,22.10
2022-08-28T08:07:56.446Z,22.10
2022-08-28T08:10:33.851Z,22.00
2022-08-28T08:13:13.107Z,22.10
2022-08-28T08:15:46.725Z,22.00
2022-08-28T08:18:17.152Z,22.10
2022-08-28T08:20:52.912Z,22.20
2022-08-28T08:23:24.516Z,22.30
2022-08-28T08:26:01.684Z,22.40
2022-08-28T08:28:32.258Z,23.00
2022-08-28T08:31:08.827Z,23.50
2022-08-28T08:33:41.025Z,23.90
2022-08-28T08:36:12.215Z,24.20
2022-08-28T08:38:42.415Z,24.50
2022-08-28T08:41:36.592Z,24.50
2022-08-28T08:44:13.012Z,24.80
2022-08-28T08:46:44.453Z,24.90
2022-08-28T08:49:19.173Z,25.00
2022-08-28T08:52:00.501Z,25.10
2022-08-28T08:54:29.961Z,25.20
2022-08-28T08:57:01.003Z,25.20
2022-08-28T08:59:33.064Z,25.10
2022-08-28T09:02:31.256Z,24.80
2022-08-28T09:05:04.234Z,24.60
2022-08-28T09:07:53.256Z,24.50
2022-08-28T09:10:22.924Z,24.30
2022-08-28T09:12:58.223Z,24.20
2022-08-28T09:15:32.032Z,24.10
2022-08-28T09:18:23.418Z,24.00
2022-08-28T09:20:54.029Z,24.00
2022-08-28T09:23:24.311Z,23.90
2022-08-28T09:25:54.094Z,23.80
2022-08-28T09:28:39.217Z,23.60
2022-08-28T09:31:08.820Z,23.60
2022-08-28T09:33:41.736Z,23.60
2022-08-28T09:36:29.885Z,23.60
2022-08-28T09:39:07.283Z,23.50
2022-08-28T09:42:15.463Z,23.50
2022-08-28T09:44:51.327Z,23.40
2022-08-28T09:47:46.745Z,23.50
2022-08-28T09:50:36.319Z,23.50
2022-08-28T09:53:12.884Z,23.50
2022-08-28T09:55:53.259Z,23.40
2022-08-28T09:58:23.647Z,23.40
2022-08-28T10:01:04.889Z,23.40
2022-08-28T10:03:54.539Z,23.40
2022-08-28T10:06:28.582Z,23.30
2022-08-28T10:08:58.414Z,23.30
2022-08-28T10:11:32.677Z,23.20
2022-08-28T10:14:17.273Z,23.20
2022-08-28T10:16:49.408Z,23.10
2022-08-28T10:19:22.673Z,23.10
2022-08-28T10:21:52.757Z,23.00
2022-08-28T10:24:26.482Z,23.00
2022-08-28T10:27:16.309Z,23.00
2022-08-28T10:29:54.208Z,23.00
2022-08-28T10:32:23.717Z,23.00
2022-08-28T10:34:59.243Z,23.00
2022-08-28T10:37:29.592Z,23.00
2022-08-28T10:40:00.800Z,22.90
2022-08-28T10:42:37.864Z,22.90
2022-08-28T10:45:10.684Z,22.80
2022-08-28T10:47:40.977Z,22.80
2022-08-28T10:50:17.966Z,22.70
2022-08-28T10:52:47.959Z,22.70
2022-08-28T10:55:23.074Z,22.60
2022-08-28T10:57:54.586Z,22.60
2022-08-28T11:00:24.483Z,22.50
2022-08-28T11:02:56.168Z,22.50
2022-08-28T11:05:26.607Z,22.50
2022-08-28T11:07:56.902Z,22.40
2022-08-28T11:10:38.412Z,22.40
2022-08-28T11:13:08.426Z,22.30
2022-08-28T11:15:37.842Z,22.20
2022-08-28T11:18:13.435Z,22.20
2022-08-28T11:20:43.685Z,22.20
2022-08-28T11:23:17.954Z,22.00
2022-08-28T11:25:47.974Z,22.00
2022-08-28T11:28:19.956Z,21.90
2022-08-28T11:30:51.109Z,21.90
2022-08-28T11:33:39.736Z,21.80
2022-08-28T11:36:14.157Z,21.80
2022-08-28T11:38:45.251Z,21.70
2022-08-28T11:41:22.177Z,21.60
2022-08-28T11:43:53.811Z,21.60
2022-08-28T11:46:29.469Z,21.60
2022-08-28T11:49:00.257Z,21.50
2022-08-28T11:51:31.567Z,21.50
2022-08-28T11:54:07.041Z,21.50
2022-08-28T11:56:37.058Z,21.40
2022-08-28T11:59:12.737Z,21.40
2022-08-28T12:01:43.021Z,21.30
2022-08-28T12:04:20.123Z,21.30
2022-08-28T12:06:52.753Z,21.30
2022-08-28T12:09:28.403Z,21.20
2022-08-28T12:11:59.085Z,21.20
2022-08-28T12:14:29.818Z,21.20
2022-08-28T12:17:06.969Z,21.10
2022-08-28T12:19:38.617Z,21.20
2022-08-28T12:22:13.431Z,21.10
2022-08-28T12:24:49.452Z,21.10
2022-08-28T12:27:18.922Z,21.10
2022-08-28T12:29:51.785Z,21.00
2022-08-28T12:32:21.290Z,21.10
2022-08-28T12:34:54.144Z,21.00
2022-08-28T12:37:50.955Z,21.00
2022-08-28T12:40:26.724Z,20.90
2022-08-28T12:43:10.021Z,21.00
2022-08-28T12:45:40.494Z,21.00
2022-08-28T12:48:14.958Z,21.00
2022-08-28T12:50:44.741Z,21.00
2022-08-28T12:53:15.470Z,20.90
2022-08-28T12:55:46.682Z,20.90
2022-08-28T12:58:17.037Z,20.90
2022-08-28T13:00:54.353Z,20.90
2022-08-28T13:03:23.947Z,20.90
2022-08-28T13:06:04.722Z,20.80
2022-08-28T13:08:35.538Z,20.80
2022-08-28T13:11:05.558Z,20.80
2022-08-28T13:13:39.316Z,20.80
2022-08-28T13:16:09.931Z,20.80
2022-08-28T13:18:40.923Z,20.80
2022-08-28T13:21:16.587Z,20.70
2022-08-28T13:23:51.623Z,20.70
2022-08-28T13:26:42.850Z,20.70
2022-08-28T13:29:22.679Z,20.70
2022-08-28T13:31:59.467Z,20.60
2022-08-28T13:34:30.351Z,20.60
2022-08-28T13:37:01.117Z,20.60
2022-08-28T13:39:31.786Z,20.60
2022-08-28T13:42:03.323Z,20.50
2022-08-28T13:44:37.265Z,20.50
2022-08-28T13:47:11.095Z,20.50
2022-08-28T13:49:41.110Z,20.50
2022-08-28T13:52:11.097Z,20.50
2022-08-28T13:54:43.703Z,20.40
2022-08-28T13:57:15.092Z,20.40
2022-08-28T13:59:44.538Z,20.40
2022-08-28T14:02:32.993Z,20.40
2022-08-28T14:05:02.795Z,20.40
2022-08-28T14:07:32.750Z,20.30
2022-08-28T14:10:03.193Z,20.30
2022-08-28T14:12:33.500Z,20.30
2022-08-28T14:15:03.499Z,20.30
2022-08-28T14:17:33.040Z,20.30
2022-08-28T14:20:02.825Z,20.30
2022-08-28T14:22:33.268Z,20.30
2022-08-28T14:25:03.180Z,20.30
2022-08-28T14:27:32.787Z,20.20
2022-08-28T14:30:02.697Z,20.20
2022-08-28T14:32:32.173Z,20.20
2022-08-28T14:35:01.622Z,20.20
2022-08-28T14:37:32.110Z,20.20
2022-08-28T14:40:01.897Z,20.20
2022-08-28T14:42:31.592Z,20.20
2022-08-28T14:45:01.349Z,20.10
2022-08-28T14:47:30.923Z,20.10
2022-08-28T14:50:00.550Z,20.10
2022-08-28T14:52:30.198Z,20.10
2022-08-28T14:54:59.746Z,20.10
2022-08-28T14:57:29.282Z,20.10
2022-08-28T14:59:58.770Z,20.10
2022-08-28T15:02:28.461Z,20.10
2022-08-28T15:05:01.940Z,20.00
2022-08-28T15:07:32.259Z,20.00
2022-08-28T15:10:02.400Z,20.00
2022-08-28T15:12:32.733Z,20.00
2022-08-28T15:15:02.149Z,20.00
2022-08-28T15:17:33.690Z,20.00
2022-08-28T15:20:05.377Z,20.00
2022-08-28T15:22:35.154Z,19.90
2022-08-28T15:25:05.016Z,19.90
2022-08-28T15:27:34.709Z,19.90
2022-08-28T15:30:04.180Z,19.90
2022-08-28T15:32:33.704Z,19.90
2022-08-28T15:35:03.105Z,19.90
2022-08-28T15:37:32.564Z,19.90
2022-08-28T15:40:20.687Z,19.80
2022-08-28T15:42:50.176Z,19.80
2022-08-28T15:45:22.318Z,19.80
2022-08-28T15:47:52.066Z,19.80
2022-08-28T15:50:21.905Z,19.80
2022-08-28T15:52:53.459Z,19.80
2022-08-28T15:55:23.051Z,19.80
2022-08-28T15:57:52.559Z,19.80
2022-08-28T16:00:22.203Z,19.80
2022-08-28T16:03:04.312Z,19.80
2022-08-28T16:05:34.390Z,19.70
2022-08-28T16:08:09.038Z,19.70
2022-08-28T16:10:38.499Z,19.80
2022-08-28T16:13:08.124Z,19.70
2022-08-28T16:15:37.631Z,19.70
2022-08-28T16:18:10.079Z,19.70
2022-08-28T16:20:39.739Z,19.70
2022-08-28T16:23:09.534Z,19.70
2022-08-28T16:25:39.392Z,19.70
2022-08-28T16:28:09.026Z,19.70
2022-08-28T16:30:43.998Z,19.70
2022-08-28T16:33:14.106Z,19.60
2022-08-28T16:35:50.731Z,19.60
2022-08-28T16:38:24.641Z,19.60
2022-08-28T16:40:54.605Z,19.60
2022-08-28T16:43:24.086Z,19.60
2022-08-28T16:45:54.059Z,19.60
2022-08-28T16:48:23.538Z,19.60
2022-08-28T16:50:53.042Z,19.60
2022-08-28T16:53:22.469Z,19.60
2022-08-28T16:55:56.619Z,19.60
2022-08-28T16:58:26.771Z,19.60
2022-08-28T17:00:56.306Z,19.60
2022-08-28T17:03:26.833Z,19.50
2022-08-28T17:05:56.910Z,19.60
2022-08-28T17:08:26.465Z,19.60
2022-08-28T17:10:56.969Z,19.50
2022-08-28T17:13:27.433Z,19.50
2022-08-28T17:15:57.332Z,19.50
2022-08-28T17:18:27.019Z,19.50
2022-08-28T17:21:15.284Z,19.50
2022-08-28T17:23:45.261Z,19.50
2022-08-28T17:26:16.502Z,19.50
2022-08-28T17:28:46.117Z,19.50
2022-08-28T17:31:15.644Z,19.50
2022-08-28T17:33:45.645Z,19.50
2022-08-28T17:36:15.788Z,19.50
2022-08-28T17:39:03.035Z,19.60
2022-08-28T17:41:34.639Z,19.50
2022-08-28T17:44:04.626Z,19.50
2022-08-28T17:46:37.772Z,19.50
2022-08-28T17:49:08.587Z,19.60
2022-08-28T17:51:42.340Z,19.50
2022-08-28T17:54:14.530Z,19.50
2022-08-28T17:56:44.453Z,19.50
2022-08-28T17:59:14.301Z,19.60
2022-08-28T18:01:43.956Z,19.60
2022-08-28T18:04:13.752Z,19.50
2022-08-28T18:06:43.230Z,19.50
2022-08-28T18:09:12.779Z,19.50
2022-08-28T18:11:42.497Z,19.50
2022-08-28T18:14:11.995Z,19.50
2022-08-28T18:16:41.473Z,19.50
2022-08-28T18:19:11.349Z,19.50
2022-08-28T18:21:40.958Z,19.50
2022-08-28T18:24:14.135Z,19.50
2022-08-28T18:26:43.889Z,19.50
2022-08-28T18:29:13.921Z,19.50
2022-08-28T18:31:43.992Z,19.50
2022-08-28T18:34:13.646Z,19.50
2022-08-28T18:36:43.467Z,19.50
2022-08-28T18:39:13.140Z,19.50
2022-08-28T18:41:43.672Z,19.50
2022-08-28T18:44:15.409Z,19.50
2022-08-28T18:46:45.362Z,19.50
2022-08-28T18:49:14.930Z,19.50
2022-08-28T18:51:45.236Z,19.40
2022-08-28T18:54:16.498Z,19.40
2022-08-28T18:56:46.672Z,19.50
2022-08-28T18:59:18.919Z,19.40
2022-08-28T19:01:48.486Z,19.40
2022-08-28T19:04:18.087Z,19.50
2022-08-28T19:06:47.587Z,19.40
2022-08-28T19:09:20.469Z,19.50
2022-08-28T19:11:50.525Z,19.50
2022-08-28T19:14:20.226Z,19.50
2022-08-28T19:16:49.694Z,19.50
2022-08-28T19:19:19.172Z,19.50
2022-08-28T19:21:49.611Z,19.50
2022-08-28T19:24:19.241Z,19.40
2022-08-28T19:26:49.867Z,19.50
2022-08-28T19:29:20.238Z,19.50
2022-08-28T19:31:49.854Z,19.50
2022-08-28T19:34:19.948Z,19.50
2022-08-28T19:36:49.454Z,19.50
2022-08-28T19:39:18.939Z,19.50
2022-08-28T19:41:48.487Z,19.50
2022-08-28T19:44:18.014Z,19.50
2022-08-28T19:46:47.656Z,19.50
2022-08-28T19:49:17.101Z,19.50
2022-08-28T19:51:46.650Z,19.50
2022-08-28T19:54:17.042Z,19.40
2022-08-28T19:56:46.494Z,19.40
2022-08-28T19:59:16.130Z,19.40
2022-08-28T20:01:47.466Z,19.40
2022-08-28T20:04:18.838Z,19.40
2022-08-28T20:06:48.498Z,19.40
2022-08-28T20:09:18.407Z,19.40
2022-08-28T20:11:48.251Z,19.40
2022-08-28T20:14:18.607Z,19.30
2022-08-28T20:16:49.530Z,19.30
2022-08-28T20:19:20.047Z,19.30
2022-08-28T20:22:21.576Z,19.30
2022-08-28T20:24:51.448Z,19.30
2022-08-28T20:27:21.281Z,19.30
2022-08-28T20:29:50.728Z,19.30
2022-08-28T20:32:20.199Z,19.20
2022-08-28T20:34:49.665Z,19.20
2022-08-28T20:37:20.232Z,19.20
2022-08-28T20:39:49.914Z,19.20
2022-08-28T20:42:19.492Z,19.20
2022-08-28T20:44:49.084Z,19.20
2022-08-28T20:47:19.398Z,19.10
2022-08-28T20:49:53.475Z,19.20
2022-08-28T20:52:23.135Z,19.10
2022-08-28T20:54:53.051Z,19.10
2022-08-28T20:57:22.611Z,19.10
2022-08-28T20:59:53.453Z,19.10
2022-08-28T21:02:24.115Z,19.10
2022-08-28T21:04:53.960Z,19.10
2022-08-28T21:07:24.293Z,19.00
2022-08-28T21:10:06.712Z,19.00
2022-08-28T21:12:40.214Z,19.00
2022-08-28T21:15:10.528Z,19.10
2022-08-28T21:17:40.432Z,19.10
2022-08-28T21:20:11.160Z,19.00
2022-08-28T21:22:40.623Z,19.00
2022-08-28T21:25:10.601Z,19.00
2022-08-28T21:27:40.147Z,19.00
2022-08-28T21:30:11.059Z,19.00
2022-08-28T21:32:40.626Z,19.00
2022-08-28T21:35:10.662Z,19.00
2022-08-28T21:37:40.985Z,19.00
2022-08-28T21:40:11.419Z,19.00
2022-08-28T21:42:40.936Z,18.90
2022-08-28T21:45:12.206Z,18.90
2022-08-28T21:47:42.686Z,19.00
2022-08-28T21:50:12.698Z,19.00
2022-08-28T21:52:42.177Z,18.90
2022-08-28T21:55:12.685Z,18.90
2022-08-28T21:57:42.142Z,18.90
2022-08-28T22:00:15.186Z,18.90
2022-08-28T22:02:44.948Z,18.90
2022-08-28T22:05:14.574Z,18.90
2022-08-28T22:07:45.483Z,18.90
2022-08-28T22:10:16.154Z,18.90
2022-08-28T22:12:45.614Z,18.90
2022-08-28T22:15:15.144Z,18.90
2022-08-28T22:17:44.644Z,18.90
2022-08-28T22:20:14.147Z,18.90
2022-08-28T22:23:01.849Z,18.90
2022-08-28T22:25:31.328Z,18.90
2022-08-28T22:28:01.234Z,18.90
2022-08-28T22:30:31.210Z,18.90
2022-08-28T22:33:04.741Z,18.80
2022-08-28T22:35:35.262Z,18.80
2022-08-28T22:38:04.815Z,18.90
2022-08-28T22:40:34.703Z,18.80
2022-08-28T22:43:04.245Z,18.90
2022-08-28T22:45:33.682Z,18.90
2022-08-28T22:48:03.234Z,18.80
2022-08-28T22:50:32.694Z,18.80
2022-08-28T22:53:02.203Z,18.80
2022-08-28T22:55:31.732Z,18.80
2022-08-28T22:58:01.314Z,18.80
2022-08-28T23:00:30.835Z,18.90
2022-08-28T23:03:00.538Z,18.80
2022-08-28T23:05:30.372Z,18.80
2022-08-28T23:07:59.830Z,18.80
2022-08-28T23:10:55.252Z,18.80
2022-08-28T23:13:19.840Z,18.90
2022-08-28T23:15:50.036Z,18.90
2022-08-28T23:18:19.648Z,18.90
2022-08-28T23:20:50.549Z,18.80
2022-08-28T23:23:20.885Z,18.80
2022-08-28T23:25:51.537Z,18.80
2022-08-28T23:28:21.118Z,18.80
2022-08-28T23:30:50.953Z,18.80
2022-08-28T23:33:23.824Z,18.90
2022-08-28T23:35:53.810Z,18.90
2022-08-28T23:38:23.307Z,18.90
2022-08-28T23:40:53.479Z,18.90
2022-08-28T23:43:22.906Z,18.90
2022-08-28T23:45:53.187Z,19.00
2022-08-28T23:48:23.491Z,18.90
2022-08-28T23:50:55.791Z,18.90
2022-08-28T23:53:25.433Z,18.90
2022-08-28T23:55:55.263Z,19.00
2022-08-28T23:58:24.804Z,19.00
